RYR801W LIMC-LIRN
Flight info
| Callsign | RYR801W |
|---|---|
| Flight time | N/A |
| Altitude | 37000 |
| Route | ROBAS DCT EVKIV DCT EKDIR DCT LOMED DCT EVULI DCT ERIKA |
| Aircraft | B738/M-SDE2E3FGHIRWXY/LB1 |
Departure
| Time | 2026-05-05 16:11 |
|---|---|
| Airport | Milan Malpensa International Airport (LIMC) |
Arrival
| Time | N/A |
|---|---|
| Airport | Naples International Airport (LIRN) |
| Time | Latitude | Longitude | Altitude | Speed | Heading |
|---|---|---|---|---|---|
| 2026-05-05 15:30 | 45.62366 | 8.71585 | 731 ft | 0 kts | 10° |
| 2026-05-05 15:57 | 45.62360 | 8.71584 | 731 ft | 2 kts | 360° |
| 2026-05-05 15:57 | 45.62345 | 8.71585 | 730 ft | 2 kts | 352° |
| 2026-05-05 15:58 | 45.62332 | 8.71590 | 730 ft | 1 kts | 340° |
| 2026-05-05 15:58 | 45.62318 | 8.71596 | 730 ft | 2 kts | 360° |
| 2026-05-05 15:58 | 45.62304 | 8.71594 | 730 ft | 2 kts | 13° |
| 2026-05-05 15:58 | 45.62289 | 8.71587 | 729 ft | 2 kts | 30° |
| 2026-05-05 15:59 | 45.62281 | 8.71579 | 729 ft | 0 kts | 40° |
| 2026-05-05 15:59 | 45.62293 | 8.71599 | 729 ft | 4 kts | 64° |
| 2026-05-05 15:59 | 45.62299 | 8.71638 | 729 ft | 6 kts | 79° |
| 2026-05-05 15:59 | 45.62304 | 8.71675 | 729 ft | 1 kts | 80° |
| 2026-05-05 16:00 | 45.62304 | 8.71678 | 729 ft | 0 kts | 79° |
| 2026-05-05 16:02 | 45.62307 | 8.71701 | 729 ft | 5 kts | 80° |
| 2026-05-05 16:02 | 45.62317 | 8.71783 | 729 ft | 11 kts | 80° |
| 2026-05-05 16:02 | 45.62321 | 8.71902 | 728 ft | 12 kts | 131° |
| 2026-05-05 16:02 | 45.62243 | 8.71949 | 727 ft | 13 kts | 170° |
| 2026-05-05 16:03 | 45.62139 | 8.71975 | 724 ft | 17 kts | 169° |
| 2026-05-05 16:03 | 45.62009 | 8.72011 | 721 ft | 21 kts | 169° |
| 2026-05-05 16:03 | 45.61855 | 8.72056 | 718 ft | 24 kts | 169° |
| 2026-05-05 16:03 | 45.61682 | 8.72103 | 713 ft | 28 kts | 169° |
| 2026-05-05 16:04 | 45.61495 | 8.72154 | 708 ft | 27 kts | 170° |
| 2026-05-05 16:04 | 45.61312 | 8.72205 | 704 ft | 25 kts | 169° |
| 2026-05-05 16:04 | 45.61150 | 8.72250 | 700 ft | 24 kts | 169° |
| 2026-05-05 16:04 | 45.60983 | 8.72296 | 697 ft | 23 kts | 169° |
| 2026-05-05 16:05 | 45.60830 | 8.72338 | 695 ft | 21 kts | 169° |
| 2026-05-05 16:05 | 45.60695 | 8.72378 | 693 ft | 16 kts | 158° |
| 2026-05-05 16:05 | 45.60639 | 8.72490 | 691 ft | 13 kts | 98° |
| 2026-05-05 16:05 | 45.60628 | 8.72628 | 691 ft | 16 kts | 96° |
| 2026-05-05 16:06 | 45.60614 | 8.72826 | 690 ft | 23 kts | 96° |
| 2026-05-05 16:06 | 45.60596 | 8.73068 | 689 ft | 23 kts | 95° |
| 2026-05-05 16:06 | 45.60609 | 8.73247 | 689 ft | 14 kts | 50° |
| 2026-05-05 16:06 | 45.60688 | 8.73310 | 690 ft | 12 kts | 23° |
| 2026-05-05 16:07 | 45.60776 | 8.73360 | 690 ft | 15 kts | 21° |
| 2026-05-05 16:07 | 45.60886 | 8.73412 | 691 ft | 16 kts | 3° |
| 2026-05-05 16:07 | 45.61005 | 8.73389 | 692 ft | 19 kts | 350° |
| 2026-05-05 16:07 | 45.61143 | 8.73350 | 694 ft | 22 kts | 349° |
| 2026-05-05 16:08 | 45.61302 | 8.73306 | 697 ft | 22 kts | 349° |
| 2026-05-05 16:08 | 45.61440 | 8.73267 | 699 ft | 18 kts | 349° |
| 2026-05-05 16:08 | 45.61550 | 8.73236 | 702 ft | 14 kts | 349° |
| 2026-05-05 16:08 | 45.61615 | 8.73274 | 703 ft | 10 kts | 74° |
| 2026-05-05 16:09 | 45.61630 | 8.73369 | 702 ft | 9 kts | 79° |
| 2026-05-05 16:09 | 45.61622 | 8.73465 | 701 ft | 11 kts | 114° |
| 2026-05-05 16:09 | 45.61589 | 8.73577 | 700 ft | 10 kts | 101° |
| 2026-05-05 16:09 | 45.61589 | 8.73588 | 700 ft | 0 kts | 96° |
| 2026-05-05 16:10 | 45.61588 | 8.73619 | 700 ft | 6 kts | 90° |
| 2026-05-05 16:10 | 45.61597 | 8.73725 | 700 ft | 11 kts | 72° |
| 2026-05-05 16:10 | 45.61642 | 8.73739 | 701 ft | 7 kts | 349° |
| 2026-05-05 16:10 | 45.61785 | 8.73697 | 704 ft | 50 kts | 347° |
| 2026-05-05 16:11 | 45.62347 | 8.73543 | 716 ft | 115 kts | 349° |
| 2026-05-05 16:11 | 45.65511 | 8.73082 | 1957 ft | 170 kts | 24° |
| 2026-05-05 16:12 | 45.66438 | 8.74045 | 2536 ft | 172 kts | 50° |
| 2026-05-05 16:12 | 45.67427 | 8.77130 | 3564 ft | 174 kts | 64° |
| 2026-05-05 16:13 | 45.70296 | 8.80720 | 4358 ft | 220 kts | 38° |
| 2026-05-05 16:13 | 45.71506 | 8.82109 | 4899 ft | 227 kts | 42° |
| 2026-05-05 16:13 | 45.72475 | 8.83751 | 5590 ft | 227 kts | 62° |
| 2026-05-05 16:14 | 45.72585 | 8.88110 | 6733 ft | 241 kts | 117° |
| 2026-05-05 16:14 | 45.70826 | 8.91441 | 7921 ft | 247 kts | 130° |
| 2026-05-05 16:15 | 45.68858 | 8.94807 | 9198 ft | 252 kts | 130° |
| 2026-05-05 16:15 | 45.67085 | 8.99776 | 10788 ft | 257 kts | 103° |
| 2026-05-05 16:16 | 45.66356 | 9.04367 | 12068 ft | 263 kts | 103° |
| 2026-05-05 16:16 | 45.65629 | 9.08969 | 12530 ft | 299 kts | 103° |
| 2026-05-05 16:17 | 45.64666 | 9.14104 | 12679 ft | 342 kts | 115° |
| 2026-05-05 16:17 | 45.63467 | 9.16618 | 13028 ft | 353 kts | 134° |
| 2026-05-05 16:18 | 45.60377 | 9.20698 | 14182 ft | 361 kts | 138° |
| 2026-05-05 16:18 | 45.58903 | 9.22584 | 14785 ft | 363 kts | 138° |
| 2026-05-05 16:18 | 45.55647 | 9.26741 | 15978 ft | 369 kts | 138° |
| 2026-05-05 16:19 | 45.54014 | 9.28824 | 16550 ft | 372 kts | 138° |
| 2026-05-05 16:19 | 45.52112 | 9.31247 | 17200 ft | 376 kts | 138° |